Miraero Ace — 3FIH4 — position and weather

sailwx.info

Track history (hours):
 
Tides and Currents Weather Stations Pressure Air Temp Water Temp Dewpoint Dewpoint Depression Visibility Wind Speed Wind Dir Waves Ship Positions

Miraero Ace

Last reported at 2015-Feb-01 01:21 UTC. Time now 2015-Feb-01 04:13 UTC.
Position N 29°51' W 089°59'.

Length 229 m; draft 7.6 m.

Type: Ship. MMSI: 373216000.

Date/timePositionNaut miles runAvg speedWind from/ knotsBaromVisibWave heightAir tempDewpointWater temp
2015-Feb-01 01:21N 29°51' W 089°59'5 5.6
2015-Feb-01 00:31N 29°55' W 089°57'10 9.1
2015-Jan-31 23:25N 29°56' W 090°08'23 1.9
2015-Jan-31 11:30N 30°03' W 090°34'0 0.0
2015-Jan-31 09:30N 30°03' W 090°34'0 0.0
2015-Jan-30 09:15N 30°03' W 090°34'0 0.0
2015-Jan-30 05:06N 30°03' W 090°34'0 0.0
2015-Jan-30 04:33N 30°03' W 090°34'0 0.0
2015-Jan-30 03:12N 30°03' W 090°34'0 0.0
2015-Jan-29 14:18N 30°03' W 090°34'0 0.0
2015-Jan-29 12:30N 30°03' W 090°34'0 0.0
2015-Jan-29 11:27N 30°03' W 090°34'0 0.0
2015-Jan-29 10:33N 30°03' W 090°34'0 0.0
2015-Jan-29 09:33N 30°03' W 090°34'0 0.0
2015-Jan-29 08:30N 30°03' W 090°34'0 0.0
2015-Jan-29 07:33N 30°03' W 090°34'0 0.0
2015-Jan-29 06:27N 30°03' W 090°34'0 0.0
2015-Jan-29 05:33N 30°03' W 090°34'0 0.0
2015-Jan-29 04:27N 30°03' W 090°34'0 0.0
2015-Jan-29 02:33N 30°03' W 090°34'0 0.0
2015-Jan-29 01:30N 30°03' W 090°34'0 0.0
2015-Jan-28 14:06N 30°03' W 090°34'0 0.0
2015-Jan-28 13:33N 30°03' W 090°34'0 0.0
2015-Jan-28 12:33N 30°03' W 090°34'0 0.0
2015-Jan-28 11:18N 30°03' W 090°34'0 0.0
2015-Jan-28 10:33N 30°03' W 090°34'0 0.0
2015-Jan-28 09:33N 30°03' W 090°34'0 0.0
2015-Jan-28 08:30N 30°03' W 090°34'0 0.0
2015-Jan-28 04:18N 30°03' W 090°34'0 0.0
2015-Jan-28 03:06N 30°03' W 090°34'7 0.5
2015-Jan-27 11:05N 29°60' W 090°26'0 0.0
2015-Jan-27 09:32N 29°60' W 090°26'0 0.0
2015-Jan-25 14:32N 29°60' W 090°26'0 0.0
2015-Jan-25 13:32N 29°60' W 090°26'0 0.0
2015-Jan-25 12:26N 29°60' W 090°26'0 0.0
2015-Jan-25 11:14N 29°60' W 090°26'0 0.0
2015-Jan-25 10:32N 29°60' W 090°26'20 0.7
2015-Jan-24 06:32N 29°57' W 090°04'25 0.7
2015-Jan-22 19:27N 29°35' W 089°49'  
Track history (hours):
 
Tides and Currents Weather Stations Pressure Air Temp Water Temp Dewpoint Dewpoint Depression Visibility Wind Speed Wind Dir Waves Ship Positions

Miraero Ace

Last reported at 2015-Feb-01 01:21 UTC. Time now 2015-Feb-01 04:13 UTC.
Position N 29°51' W 089°59'.

Length 229 m; draft 7.6 m.

Type: Ship. MMSI: 373216000.

Date/timePositionNaut miles runAvg speedWind from/ knotsBaromVisibWave heightAir tempDewpointWater temp
2015-Feb-01 01:21N 29°51' W 089°59'5 5.6
2015-Feb-01 00:31N 29°55' W 089°57'10 9.1
2015-Jan-31 23:25N 29°56' W 090°08'23 1.9
2015-Jan-31 11:30N 30°03' W 090°34'0 0.0
2015-Jan-31 09:30N 30°03' W 090°34'0 0.0
2015-Jan-30 09:15N 30°03' W 090°34'0 0.0
2015-Jan-30 05:06N 30°03' W 090°34'0 0.0
2015-Jan-30 04:33N 30°03' W 090°34'0 0.0
2015-Jan-30 03:12N 30°03' W 090°34'0 0.0
2015-Jan-29 14:18N 30°03' W 090°34'0 0.0
2015-Jan-29 12:30N 30°03' W 090°34'0 0.0
2015-Jan-29 11:27N 30°03' W 090°34'0 0.0
2015-Jan-29 10:33N 30°03' W 090°34'0 0.0
2015-Jan-29 09:33N 30°03' W 090°34'0 0.0
2015-Jan-29 08:30N 30°03' W 090°34'0 0.0
2015-Jan-29 07:33N 30°03' W 090°34'0 0.0
2015-Jan-29 06:27N 30°03' W 090°34'0 0.0
2015-Jan-29 05:33N 30°03' W 090°34'0 0.0
2015-Jan-29 04:27N 30°03' W 090°34'0 0.0
2015-Jan-29 02:33N 30°03' W 090°34'0 0.0
2015-Jan-29 01:30N 30°03' W 090°34'0 0.0
2015-Jan-28 14:06N 30°03' W 090°34'0 0.0
2015-Jan-28 13:33N 30°03' W 090°34'0 0.0
2015-Jan-28 12:33N 30°03' W 090°34'0 0.0
2015-Jan-28 11:18N 30°03' W 090°34'0 0.0
2015-Jan-28 10:33N 30°03' W 090°34'0 0.0
2015-Jan-28 09:33N 30°03' W 090°34'0 0.0
2015-Jan-28 08:30N 30°03' W 090°34'0 0.0
2015-Jan-28 04:18N 30°03' W 090°34'0 0.0
2015-Jan-28 03:06N 30°03' W 090°34'7 0.5
2015-Jan-27 11:05N 29°60' W 090°26'0 0.0
2015-Jan-27 09:32N 29°60' W 090°26'0 0.0
2015-Jan-25 14:32N 29°60' W 090°26'0 0.0
2015-Jan-25 13:32N 29°60' W 090°26'0 0.0
2015-Jan-25 12:26N 29°60' W 090°26'0 0.0
2015-Jan-25 11:14N 29°60' W 090°26'0 0.0
2015-Jan-25 10:32N 29°60' W 090°26'20 0.7
2015-Jan-24 06:32N 29°57' W 090°04'25 0.7
2015-Jan-22 19:27N 29°35' W 089°49'  

Dump ship's entire track history